Time;durP1;ratioP1;P1;durP2;ratioP2;P2;SDS_P1;SDS_P2;PMS_P1;PMS_P2;Temp;Humidity;BMP_temperature;BMP_pressure;BME280_temperature;BME280_humidity;BME280_pressure;Samples;Min_cycle;Max_cycle;Signal;HPM_P1;HPM_P2
2023/04/19 00:01:34;;;;;;;0.57;0.57;;;;;;;8.29;86.03;97413.22;88122;203;64005;-56
2023/04/19 00:02:07;;;;;;;0.50;0.50;;;;;;;8.29;86.08;97410.53;29394;218;64009;-57
2023/04/19 00:02:40;;;;;;;0.50;0.50;;;;;;;8.29;86.15;97405.12;29395;216;63004;-56
2023/04/19 00:03:13;;;;;;;0.60;0.60;;;;;;;8.28;86.01;97411.59;29395;232;63014;-54
2023/04/19 00:03:44;;;;;;;0.50;0.50;;;;;;;8.26;85.81;97411.06;29395;199;63004;-56
2023/04/19 00:04:15;;;;;;;0.50;0.50;;;;;;;8.27;85.87;97418.91;29395;217;63019;-56
2023/04/19 00:04:47;;;;;;;0.50;0.50;;;;;;;8.27;85.83;97412.69;29395;222;63004;-57
2023/04/19 00:05:19;;;;;;;0.50;0.50;;;;;;;8.27;85.48;97407.28;29395;218;63008;-56
2023/04/19 00:05:53;;;;;;;0.50;0.50;;;;;;;8.25;85.50;97404.84;29394;207;64009;-57
2023/04/19 00:06:24;;;;;;;0.50;0.50;;;;;;;8.24;85.58;97413.22;29395;203;63025;-58
2023/04/19 00:06:57;;;;;;;0.60;0.60;;;;;;;8.24;85.24;97413.22;29395;204;63005;-57
2023/04/19 00:07:28;;;;;;;0.50;0.50;;;;;;;8.24;85.25;97407.81;29395;211;63009;-60
2023/04/19 00:07:59;;;;;;;0.50;0.50;;;;;;;8.25;85.23;97406.72;29395;205;63005;-56
2023/04/19 00:08:31;;;;;;;0.50;0.50;;;;;;;8.26;85.02;97411.06;29395;255;63009;-56
2023/04/19 00:09:03;;;;;;;0.50;0.50;;;;;;;8.27;84.79;97401.87;29395;204;63010;-56
2023/04/19 00:09:34;;;;;;;0.50;0.50;;;;;;;8.29;84.73;97405.12;29395;198;63009;-57
2023/04/19 00:10:07;;;;;;;0.50;0.50;;;;;;;8.29;84.65;97405.12;29394;203;64009;-56
2023/04/19 00:10:39;;;;;;;0.50;0.50;;;;;;;8.29;84.65;97410.53;29395;228;63009;-57
2023/04/19 00:11:11;;;;;;;0.50;0.50;;;;;;;8.28;84.44;97406.19;29395;220;63004;-60
2023/04/19 00:11:42;;;;;;;0.50;0.50;;;;;;;8.27;84.48;97407.28;29394;264;64007;-56
2023/04/19 00:12:13;;;;;;;0.50;0.50;;;;;;;8.26;84.39;97409.16;29395;222;63019;-56
2023/04/19 00:12:44;;;;;;;0.50;0.50;;;;;;;8.26;84.32;97408.34;29395;268;63009;-53
2023/04/19 00:13:15;;;;;;;0.50;0.50;;;;;;;8.26;84.41;97411.88;29395;197;63010;-58
2023/04/19 00:13:48;;;;;;;0.50;0.50;;;;;;;8.29;84.38;97410.53;29395;274;63009;-57
2023/04/19 00:14:19;;;;;;;0.50;0.50;;;;;;;8.28;84.37;97403.50;29395;240;63005;-56
2023/04/19 00:14:50;;;;;;;0.50;0.50;;;;;;;8.27;84.36;97407.28;29395;244;63009;-56
2023/04/19 00:15:22;;;;;;;0.50;0.50;;;;;;;8.27;84.33;97413.50;29395;202;63005;-56
2023/04/19 00:15:53;;;;;;;0.50;0.50;;;;;;;8.26;84.14;97405.66;29394;231;64013;-57
2023/04/19 00:16:24;;;;;;;0.50;0.50;;;;;;;8.26;84.56;97405.66;29395;205;63005;-58
2023/04/19 00:16:56;;;;;;;0.50;0.50;;;;;;;8.23;84.68;97411.56;29395;268;63027;-59
2023/04/19 00:17:27;;;;;;;0.50;0.50;;;;;;;8.22;84.71;97399.12;29395;212;63004;-57
2023/04/19 00:17:59;;;;;;;0.50;0.50;;;;;;;8.23;84.41;97407.00;29395;276;63009;-57
2023/04/19 00:18:30;;;;;;;0.50;0.50;;;;;;;8.24;84.32;97408.63;29394;218;64004;-56
2023/04/19 00:19:01;;;;;;;0.50;0.50;;;;;;;8.26;84.52;97405.66;29395;203;63008;-61
2023/04/19 00:19:33;;;;;;;0.50;0.50;;;;;;;8.25;84.13;97409.44;29394;268;64008;-56
2023/04/19 00:20:05;;;;;;;0.50;0.50;;;;;;;8.26;84.42;97411.88;29395;242;63009;-56
2023/04/19 00:20:38;;;;;;;0.50;0.50;;;;;;;8.26;84.22;97411.06;29395;218;63005;-56
2023/04/19 00:21:10;;;;;;;0.50;0.50;;;;;;;8.27;84.48;97412.69;29395;247;63009;-56
2023/04/19 00:21:42;;;;;;;0.50;0.50;;;;;;;8.26;84.31;97402.94;29395;199;63008;-59
2023/04/19 00:22:13;;;;;;;0.50;0.50;;;;;;;8.23;85.23;97412.41;29395;245;63005;-56
2023/04/19 00:22:44;;;;;;;0.50;0.50;;;;;;;8.22;85.86;97404.53;29395;244;63005;-56
2023/04/19 00:23:15;;;;;;;0.50;0.50;;;;;;;8.19;86.47;97402.37;29395;244;63009;-58
2023/04/19 00:23:46;;;;;;;0.50;0.50;;;;;;;8.18;85.50;97404.25;29395;211;63005;-57
2023/04/19 00:24:17;;;;;;;0.50;0.50;;;;;;;8.20;85.32;97406.69;29394;213;64009;-56
2023/04/19 00:24:49;;;;;;;0.50;0.50;;;;;;;8.21;84.94;97408.31;29394;258;64009;-58
2023/04/19 00:25:21;;;;;;;0.50;0.50;;;;;;;8.21;84.64;97408.31;29394;248;64003;-57
2023/04/19 00:25:52;;;;;;;0.50;0.50;;;;;;;8.22;84.69;97404.53;29395;247;63004;-56
2023/04/19 00:26:24;;;;;;;0.50;0.50;;;;;;;8.22;84.85;97409.94;29395;227;63009;-56
2023/04/19 00:26:56;;;;;;;0.50;0.50;;;;;;;8.21;84.68;97400.22;29395;263;63004;-56
2023/04/19 00:27:27;;;;;;;0.50;0.50;;;;;;;8.19;85.18;97407.78;29395;197;63009;-56
2023/04/19 00:27:58;;;;;;;0.50;0.50;;;;;;;8.18;84.98;97398.03;29395;249;63005;-56
2023/04/19 00:28:30;;;;;;;0.50;0.50;;;;;;;8.18;84.93;97403.44;29395;251;63009;-56
2023/04/19 00:29:01;;;;;;;0.50;0.50;;;;;;;8.18;84.83;97389.94;29395;219;63005;-57
2023/04/19 00:29:32;;;;;;;0.50;0.50;;;;;;;8.17;84.80;97396.41;29395;241;63009;-56
2023/04/19 00:30:05;;;;;;;0.50;0.50;;;;;;;8.17;85.49;97407.22;29395;276;63016;-57
2023/04/19 00:30:37;;;;;;;0.50;0.50;;;;;;;8.16;85.72;97401.00;29394;196;64013;-56
2023/04/19 00:31:11;;;;;;;0.60;0.60;;;;;;;8.17;85.63;97401.81;29395;216;63005;-56
2023/04/19 00:31:42;;;;;;;0.50;0.50;;;;;;;8.17;85.89;97401.81;29395;218;63016;-57
2023/04/19 00:32:15;;;;;;;0.50;0.50;;;;;;;8.19;85.40;97402.37;29394;211;64009;-57
2023/04/19 00:32:46;;;;;;;0.60;0.60;;;;;;;8.19;85.30;97396.97;29395;216;63009;-59
2023/04/19 00:33:17;;;;;;;0.50;0.50;;;;;;;8.18;84.85;97392.63;29395;202;63004;-56
2023/04/19 00:33:48;;;;;;;0.50;0.50;;;;;;;8.19;84.92;97402.37;29394;224;64013;-58
2023/04/19 00:34:20;;;;;;;0.50;0.50;;;;;;;8.17;84.96;97391.00;29395;218;63014;-60
2023/04/19 00:34:51;;;;;;;0.50;0.50;;;;;;;8.17;85.17;97396.41;29395;223;63008;-56
2023/04/19 00:35:22;;;;;;;0.50;0.50;;;;;;;8.15;84.88;97393.16;29395;262;63005;-56
2023/04/19 00:35:53;;;;;;;0.50;0.50;;;;;;;8.16;85.00;97402.91;29395;203;63009;-56
2023/04/19 00:36:25;;;;;;;0.50;0.50;;;;;;;8.15;85.16;97398.56;29395;259;63000;-56
2023/04/19 00:36:56;;;;;;;0.50;0.50;;;;;;;8.14;85.26;97402.34;29394;227;64013;-56
2023/04/19 00:37:28;;;;;;;0.50;0.50;;;;;;;8.13;85.00;97396.13;29395;226;63005;-56
2023/04/19 00:37:59;;;;;;;0.50;0.50;;;;;;;8.13;85.80;97395.31;29395;254;63009;-56
2023/04/19 00:38:31;;;;;;;0.50;0.50;;;;;;;8.11;85.78;97403.69;29394;202;64009;-57
2023/04/19 00:39:02;;;;;;;0.50;0.50;;;;;;;8.11;85.94;97397.47;29395;207;63015;-56
2023/04/19 00:39:34;;;;;;;0.50;0.50;;;;;;;8.09;85.65;97395.03;29395;251;63004;-60
2023/04/19 00:40:08;;;;;;;0.50;0.50;;;;;;;8.08;85.87;97396.91;29395;209;63015;-60
2023/04/19 00:40:39;;;;;;;0.50;0.50;;;;;;;8.08;85.72;97388.81;29395;221;63004;-57
2023/04/19 00:41:11;;;;;;;0.50;0.50;;;;;;;8.08;85.66;97393.41;29395;214;63008;-57
2023/04/19 00:41:43;;;;;;;0.50;0.50;;;;;;;8.08;85.74;97394.22;29394;196;64008;-56
2023/04/19 00:42:14;;;;;;;0.50;0.50;;;;;;;8.08;86.20;97396.09;29395;241;63008;-56
2023/04/19 00:42:45;;;;;;;0.50;0.50;;;;;;;8.05;86.35;97391.22;29395;230;63005;-57
2023/04/19 00:43:20;;;;;;;0.50;0.50;;;;;;;8.04;86.52;97393.13;29395;237;63009;-57
2023/04/19 00:43:51;;;;;;;0.50;0.50;;;;;;;8.03;86.47;97396.88;29395;216;63005;-56
2023/04/19 00:44:23;;;;;;;0.50;0.50;;;;;;;8.04;86.68;97385.00;29395;242;63017;-57
2023/04/19 00:44:54;;;;;;;0.50;0.50;;;;;;;8.06;86.52;97399.06;29394;249;64009;-57
2023/04/19 00:45:26;;;;;;;0.50;0.50;;;;;;;8.05;86.19;97392.03;29395;210;63009;-56
2023/04/19 00:45:57;;;;;;;0.50;0.50;;;;;;;8.07;86.13;97391.78;29395;277;63019;-57
2023/04/19 00:46:29;;;;;;;0.50;0.50;;;;;;;8.06;86.10;97396.38;29395;247;63009;-57
2023/04/19 00:47:00;;;;;;;0.50;0.50;;;;;;;8.06;85.86;97390.97;29395;216;63000;-60
2023/04/19 00:47:35;;;;;;;0.50;0.50;;;;;;;8.03;86.09;97388.78;29394;251;64013;-57
2023/04/19 00:48:10;;;;;;;0.50;0.50;;;;;;;8.03;86.20;97388.78;29395;227;63004;-58
2023/04/19 00:48:42;;;;;;;0.50;0.50;;;;;;;8.02;86.35;97389.84;29395;223;63008;-57
2023/04/19 00:49:13;;;;;;;0.50;0.50;;;;;;;8.01;86.16;97388.22;29395;223;63019;-57
2023/04/19 00:49:45;;;;;;;0.50;0.50;;;;;;;8.02;86.25;97392.56;29395;260;63009;-57
2023/04/19 00:50:17;;;;;;;0.50;0.50;;;;;;;8.02;86.15;97395.25;29395;217;63005;-57
2023/04/19 00:50:48;;;;;;;0.50;0.50;;;;;;;8.02;86.43;97394.44;29395;232;63009;-57
2023/04/19 00:51:20;;;;;;;0.50;0.50;;;;;;;8.01;86.15;97390.94;29395;230;63010;-57
2023/04/19 00:51:51;;;;;;;0.60;0.60;;;;;;;8.03;86.29;97383.38;29395;219;63009;-55
2023/04/19 00:52:22;;;;;;;0.50;0.50;;;;;;;8.08;86.03;97391.50;29395;214;63005;-56
2023/04/19 00:52:55;;;;;;;0.50;0.50;;;;;;;8.10;85.94;97387.72;29394;232;64013;-57
2023/04/19 00:53:26;;;;;;;0.50;0.50;;;;;;;8.09;85.88;97392.31;29395;267;63004;-56
2023/04/19 00:53:58;;;;;;;0.50;0.50;;;;;;;8.08;85.83;97388.00;29394;225;64013;-57
2023/04/19 00:54:30;;;;;;;0.50;0.50;;;;;;;8.06;85.90;97388.25;29394;250;64009;-57
2023/04/19 00:55:03;;;;;;;0.50;0.50;;;;;;;8.06;85.61;97388.25;29395;203;63009;-57
2023/04/19 00:55:35;;;;;;;0.50;0.50;;;;;;;8.03;86.47;97386.09;29395;252;63000;-58
2023/04/19 00:56:07;;;;;;;0.50;0.50;;;;;;;8.03;86.61;97386.09;29395;209;63015;-57
2023/04/19 00:56:39;;;;;;;0.50;0.50;;;;;;;8.04;86.35;97390.41;29395;258;63004;-57
2023/04/19 00:57:10;;;;;;;0.50;0.50;;;;;;;8.02;86.43;97384.44;29395;222;63009;-57
2023/04/19 00:57:42;;;;;;;0.50;0.50;;;;;;;8.02;86.17;97383.66;29395;227;63005;-57
2023/04/19 00:58:13;;;;;;;0.50;0.50;;;;;;;8.01;86.75;97385.53;29395;224;63009;-57
2023/04/19 00:58:46;;;;;;;0.50;0.50;;;;;;;8.00;86.62;97392.00;29395;199;63005;-57
2023/04/19 00:59:18;;;;;;;1.02;1.02;;;;;;;8.00;86.29;97383.91;29395;229;63009;-57
2023/04/19 00:59:50;;;;;;;0.50;0.50;;;;;;;7.99;86.34;97384.97;29394;204;64009;-56
2023/04/19 01:00:21;;;;;;;0.50;0.50;;;;;;;8.00;86.47;97386.59;29395;202;63009;-56
2023/04/19 01:00:53;;;;;;;0.50;0.50;;;;;;;8.01;86.19;97382.81;29395;222;63004;-57
2023/04/19 01:01:24;;;;;;;0.50;0.50;;;;;;;8.02;86.22;97387.16;29395;246;63009;-57
2023/04/19 01:01:55;;;;;;;0.50;0.50;;;;;;;8.02;86.58;97389.84;29395;241;63000;-57
2023/04/19 01:02:27;;;;;;;0.50;0.50;;;;;;;8.01;86.23;97388.22;29395;210;63009;-57
2023/04/19 01:02:58;;;;;;;0.50;0.50;;;;;;;8.01;86.24;97387.41;29395;210;63004;-57
2023/04/19 01:03:30;;;;;;;0.50;0.50;;;;;;;8.00;86.03;97385.78;29395;208;63008;-58
2023/04/19 01:04:01;;;;;;;0.50;0.50;;;;;;;8.01;86.34;97387.41;29395;220;63004;-59
2023/04/19 01:04:34;;;;;;;0.50;0.50;;;;;;;8.00;86.34;97389.31;29395;211;63012;-56
2023/04/19 01:05:06;;;;;;;0.50;0.50;;;;;;;7.99;86.93;97384.97;29394;240;64024;-57
2023/04/19 01:05:38;;;;;;;0.52;0.52;;;;;;;7.99;86.56;97384.97;29395;259;63026;-56
2023/04/19 01:06:10;;;;;;;0.50;0.50;;;;;;;7.98;87.15;97386.06;29395;242;63005;-57
2023/04/19 01:06:42;;;;;;;0.50;0.50;;;;;;;7.95;86.92;97381.22;29395;235;63009;-56
2023/04/19 01:07:13;;;;;;;0.50;0.50;;;;;;;7.95;86.91;97389.31;29395;196;63005;-56
2023/04/19 01:07:45;;;;;;;0.50;0.50;;;;;;;7.94;87.13;97376.88;29395;214;63009;-57
2023/04/19 01:08:16;;;;;;;0.50;0.50;;;;;;;7.95;87.10;97391.19;29395;246;63005;-57
2023/04/19 01:08:47;;;;;;;0.50;0.50;;;;;;;7.97;86.81;97386.34;29395;208;63009;-57
2023/04/19 01:09:19;;;;;;;0.50;0.50;;;;;;;7.96;87.18;97380.13;29395;252;63004;-58
2023/04/19 01:09:50;;;;;;;0.50;0.50;;;;;;;7.97;87.27;97383.66;29395;202;63009;-57
2023/04/19 01:10:26;;;;;;;0.50;0.50;;;;;;;7.97;87.29;97386.34;29394;213;64009;-57
2023/04/19 01:10:57;;;;;;;0.50;0.50;;;;;;;7.97;87.45;97386.34;29394;220;64008;-56
2023/04/19 01:11:29;;;;;;;0.50;0.50;;;;;;;7.96;87.57;97374.72;29395;241;63004;-58
2023/04/19 01:12:02;;;;;;;0.50;0.50;;;;;;;7.95;87.22;97386.63;29395;249;63009;-57
2023/04/19 01:12:34;;;;;;;0.50;0.50;;;;;;;7.97;87.14;97381.72;29395;199;63011;-57
2023/04/19 01:13:05;;;;;;;0.60;0.60;;;;;;;7.97;87.29;97380.94;29395;272;63009;-57
2023/04/19 01:13:37;;;;;;;0.50;0.50;;;;;;;7.97;87.17;97379.03;29395;238;63005;-57
2023/04/19 01:14:08;;;;;;;0.50;0.50;;;;;;;7.98;87.07;97377.13;29395;202;63009;-57
2023/04/19 01:14:39;;;;;;;0.50;0.50;;;;;;;7.96;87.02;97380.13;29395;214;63005;-57
2023/04/19 01:15:11;;;;;;;0.50;0.50;;;;;;;7.96;87.00;97373.91;29395;238;63009;-57
2023/04/19 01:15:43;;;;;;;0.50;0.50;;;;;;;7.94;87.01;97371.47;29394;220;64009;-57
2023/04/19 01:16:14;;;;;;;0.50;0.50;;;;;;;7.94;86.95;97382.28;29395;212;63009;-57
2023/04/19 01:16:46;;;;;;;0.50;0.50;;;;;;;7.92;87.03;97379.03;29395;282;63004;-57
2023/04/19 01:17:18;;;;;;;0.50;0.50;;;;;;;7.90;87.12;97381.19;29395;212;63009;-57
2023/04/19 01:17:49;;;;;;;0.65;0.65;;;;;;;7.88;87.50;97372.53;29395;234;63004;-58
2023/04/19 01:18:23;;;;;;;0.50;0.50;;;;;;;7.88;87.23;97377.94;29395;217;63009;-56
2023/04/19 01:18:55;;;;;;;0.50;0.50;;;;;;;7.87;87.70;97379.00;29394;213;64008;-57
2023/04/19 01:19:26;;;;;;;0.50;0.50;;;;;;;7.87;87.64;97375.50;29395;198;63009;-57
2023/04/19 01:20:02;;;;;;;0.50;0.50;;;;;;;7.87;87.52;97380.91;29395;295;63005;-57
2023/04/19 01:20:33;;;;;;;0.50;0.50;;;;;;;7.86;87.64;97380.06;29395;256;63012;-57
2023/04/19 01:21:05;;;;;;;0.50;0.50;;;;;;;7.86;87.38;97380.06;29395;224;63007;-57
2023/04/19 01:21:38;;;;;;;0.50;0.50;;;;;;;7.87;87.59;97370.09;29395;230;63009;-57
2023/04/19 01:22:23;;;;;;;0.57;0.57;;;;;;;7.88;87.37;97371.72;29395;223;63000;-57
2023/04/19 01:22:54;;;;;;;0.50;0.50;;;;;;;7.88;87.75;97366.31;29395;250;63012;-57
2023/04/19 01:23:25;;;;;;;0.50;0.50;;;;;;;7.88;87.82;97372.53;29395;214;63000;-56
2023/04/19 01:23:57;;;;;;;0.50;0.50;;;;;;;7.88;87.74;97375.22;29394;233;64013;-56
2023/04/19 01:24:29;;;;;;;0.50;0.50;;;;;;;7.88;87.63;97372.53;29395;233;63004;-56
2023/04/19 01:25:01;;;;;;;0.50;0.50;;;;;;;7.88;88.04;97372.53;29395;199;63009;-56
2023/04/19 01:25:32;;;;;;;0.50;0.50;;;;;;;7.87;87.71;97370.91;29395;232;63004;-57
2023/04/19 01:26:04;;;;;;;0.50;0.50;;;;;;;7.87;87.71;97370.91;29395;233;63008;-57
2023/04/19 01:26:35;;;;;;;0.50;0.50;;;;;;;7.89;87.68;97378.75;29395;204;63004;-57
2023/04/19 01:27:06;;;;;;;0.50;0.50;;;;;;;7.89;87.76;97368.75;29395;279;63009;-58
2023/04/19 01:27:38;;;;;;;0.50;0.50;;;;;;;7.90;87.68;97369.56;29395;244;63005;-57
2023/04/19 01:28:09;;;;;;;0.50;0.50;;;;;;;7.89;87.39;97371.44;29395;284;63009;-57
2023/04/19 01:28:40;;;;;;;0.50;0.50;;;;;;;7.90;87.47;97370.38;29395;198;63005;-57
2023/04/19 01:29:16;;;;;;;0.50;0.50;;;;;;;7.92;87.60;97370.94;29394;204;64013;-57
2023/04/19 01:29:47;;;;;;;0.50;0.50;;;;;;;7.93;87.16;97372.56;29395;265;63010;-57
2023/04/19 01:30:18;;;;;;;0.50;0.50;;;;;;;7.94;87.32;97365.25;29395;231;63009;-57
2023/04/19 01:30:50;;;;;;;0.50;0.50;;;;;;;7.95;86.95;97366.88;29395;221;63005;-57
2023/04/19 01:31:21;;;;;;;0.50;0.50;;;;;;;7.95;86.91;97373.09;29395;228;63009;-59
2023/04/19 01:31:52;;;;;;;0.50;0.50;;;;;;;7.97;87.09;97370.91;29395;240;63004;-57
2023/04/19 01:32:27;;;;;;;0.50;0.50;;;;;;;7.97;87.19;97367.44;29395;212;63017;-57
2023/04/19 01:32:58;;;;;;;0.50;0.50;;;;;;;7.96;86.92;97368.50;29395;214;63004;-56
2023/04/19 01:33:29;;;;;;;0.50;0.50;;;;;;;7.95;87.14;97365.00;29395;218;63004;-56
2023/04/19 01:34:00;;;;;;;0.50;0.50;;;;;;;7.95;86.82;97359.59;29395;229;63009;-55
2023/04/19 01:34:32;;;;;;;0.50;0.50;;;;;;;7.94;87.41;97357.97;29394;204;64014;-58
2023/04/19 01:35:04;;;;;;;0.50;0.50;;;;;;;7.93;87.07;97358.22;29395;263;63005;-57
2023/04/19 01:35:35;;;;;;;0.50;0.50;;;;;;;7.92;87.04;97360.12;29395;216;63009;-57
2023/04/19 01:36:10;;;;;;;0.50;0.50;;;;;;;7.92;87.33;97362.81;29395;221;63005;-57
2023/04/19 01:36:41;;;;;;;0.50;0.50;;;;;;;7.92;87.43;97362.00;29395;197;63009;-57
2023/04/19 01:37:13;;;;;;;0.50;0.50;;;;;;;7.91;87.50;97360.38;29395;263;63005;-56
2023/04/19 01:37:44;;;;;;;0.50;0.50;;;;;;;7.90;87.57;97364.16;29395;236;63009;-57
2023/04/19 01:38:16;;;;;;;0.50;0.50;;;;;;;7.89;87.46;97363.34;29395;197;63005;-56
2023/04/19 01:38:49;;;;;;;0.50;0.50;;;;;;;7.89;87.24;97363.34;29394;237;64009;-56
2023/04/19 01:39:21;;;;;;;0.50;0.50;;;;;;;7.89;87.34;97357.94;29395;278;63000;-58
2023/04/19 01:39:52;;;;;;;0.50;0.50;;;;;;;7.88;87.42;97363.59;29394;271;64013;-57
2023/04/19 01:40:25;;;;;;;0.50;0.50;;;;;;;7.88;87.43;97355.50;29395;198;63004;-57
2023/04/19 01:40:56;;;;;;;0.50;0.50;;;;;;;7.90;87.13;97361.47;29395;235;63009;-58
2023/04/19 01:41:28;;;;;;;0.50;0.50;;;;;;;7.90;86.92;97359.56;29395;218;63004;-57
2023/04/19 01:42:03;;;;;;;0.50;0.50;;;;;;;7.91;87.40;97360.38;29394;224;64014;-57
2023/04/19 01:42:34;;;;;;;0.50;0.50;;;;;;;7.91;87.02;97361.19;29395;273;63007;-58
2023/04/19 01:43:06;;;;;;;0.50;0.50;;;;;;;7.90;87.04;97359.56;29395;197;63009;-56
2023/04/19 01:43:38;;;;;;;0.50;0.50;;;;;;;7.88;87.49;97359.00;29395;209;63005;-56
2023/04/19 01:44:09;;;;;;;0.50;0.50;;;;;;;7.85;88.00;97354.13;29395;202;63019;-57
2023/04/19 01:44:41;;;;;;;0.50;0.50;;;;;;;7.84;87.96;97357.09;29394;198;64009;-57
2023/04/19 01:45:12;;;;;;;0.50;0.50;;;;;;;7.84;87.88;97355.22;29395;199;63009;-57
2023/04/19 01:45:44;;;;;;;0.50;0.50;;;;;;;7.84;87.93;97351.69;29394;210;64009;-56
2023/04/19 01:46:15;;;;;;;0.50;0.50;;;;;;;7.82;87.75;97349.25;29395;202;63009;-58
2023/04/19 01:46:46;;;;;;;0.50;0.50;;;;;;;7.81;87.85;97354.94;29395;196;63004;-58
2023/04/19 01:47:18;;;;;;;0.50;0.50;;;;;;;7.81;87.96;97355.75;29395;196;63009;-61
2023/04/19 01:47:50;;;;;;;0.50;0.50;;;;;;;7.80;88.02;97348.72;29395;271;63011;-57
2023/04/19 01:48:21;;;;;;;0.50;0.50;;;;;;;7.81;88.15;97353.03;29395;216;63008;-57
2023/04/19 01:48:52;;;;;;;0.50;0.50;;;;;;;7.79;88.39;97347.09;29394;208;64008;-58
2023/04/19 01:49:24;;;;;;;0.50;0.50;;;;;;;7.79;88.22;97349.78;29395;202;63008;-57
2023/04/19 01:49:59;;;;;;;0.50;0.50;;;;;;;7.77;88.25;97354.63;29394;198;64005;-57
2023/04/19 01:50:31;;;;;;;0.50;0.50;;;;;;;7.76;88.57;97353.00;29395;216;63015;-55
2023/04/19 01:51:03;;;;;;;0.60;0.60;;;;;;;7.76;88.19;97347.59;29394;248;64009;-61
2023/04/19 01:51:34;;;;;;;0.50;0.50;;;;;;;7.76;88.08;97353.00;29394;250;64013;-57
2023/04/19 01:52:06;;;;;;;0.50;0.50;;;;;;;7.77;88.23;97349.22;29395;216;63005;-57
2023/04/19 01:52:37;;;;;;;0.50;0.50;;;;;;;7.77;88.29;97343.84;29395;218;63009;-57
2023/04/19 01:53:08;;;;;;;0.50;0.50;;;;;;;7.78;88.32;97356.25;29395;218;63004;-57
2023/04/19 01:53:39;;;;;;;0.50;0.50;;;;;;;7.76;88.68;97353.00;29395;225;63009;-57
2023/04/19 01:54:11;;;;;;;0.50;0.50;;;;;;;7.75;88.63;97354.09;29395;199;63014;-57
2023/04/19 01:54:42;;;;;;;0.50;0.50;;;;;;;7.74;88.93;97349.75;29395;265;63009;-56
2023/04/19 01:55:13;;;;;;;0.50;0.50;;;;;;;7.73;89.08;97348.13;29395;219;63004;-57
2023/04/19 01:55:45;;;;;;;0.50;0.50;;;;;;;7.73;89.08;97353.53;29394;237;64013;-57
2023/04/19 01:56:16;;;;;;;0.50;0.50;;;;;;;7.74;88.61;97355.16;29395;198;63005;-57
2023/04/19 01:56:47;;;;;;;0.50;0.50;;;;;;;7.74;88.75;97344.34;29395;219;63012;-57
2023/04/19 01:57:19;;;;;;;0.50;0.50;;;;;;;7.75;88.51;97351.38;29395;197;63005;-58
2023/04/19 01:57:51;;;;;;;0.50;0.50;;;;;;;7.75;88.57;97351.38;29395;219;63025;-57
2023/04/19 01:58:23;;;;;;;0.50;0.50;;;;;;;7.75;88.29;97345.97;29395;216;63005;-57
2023/04/19 01:58:54;;;;;;;0.50;0.50;;;;;;;7.75;88.31;97340.56;29394;216;64013;-57
2023/04/19 01:59:25;;;;;;;0.50;0.50;;;;;;;7.74;88.29;97344.34;29395;273;63005;-57
2023/04/19 01:59:56;;;;;;;0.50;0.50;;;;;;;7.75;88.57;97345.97;29395;233;63009;-56
2023/04/19 02:00:28;;;;;;;0.60;0.60;;;;;;;7.74;88.49;97349.75;29395;244;63004;-58
2023/04/19 02:00:59;;;;;;;0.55;0.55;;;;;;;7.74;88.81;97345.16;29395;200;63004;-57
2023/04/19 02:01:30;;;;;;;0.45;0.45;;;;;;;7.73;88.54;97343.53;29395;233;63004;-57
2023/04/19 02:02:01;;;;;;;0.50;0.50;;;;;;;7.75;88.15;97345.97;29395;272;63009;-57
2023/04/19 02:02:35;;;;;;;0.50;0.50;;;;;;;7.75;88.45;97340.56;29394;260;64009;-57
2023/04/19 02:03:06;;;;;;;0.50;0.50;;;;;;;7.75;88.44;97348.69;29395;210;63017;-56
2023/04/19 02:03:38;;;;;;;0.60;0.60;;;;;;;7.75;88.13;97340.56;29395;233;63004;-57
2023/04/19 02:04:10;;;;;;;0.50;0.50;;;;;;;7.74;88.54;97345.16;29395;273;63009;-57
2023/04/19 02:04:41;;;;;;;0.50;0.50;;;;;;;7.74;88.24;97344.34;29395;204;63005;-57
2023/04/19 02:05:13;;;;;;;0.50;0.50;;;;;;;7.73;88.51;97340.84;29395;222;63009;-57
2023/04/19 02:05:45;;;;;;;0.50;0.50;;;;;;;7.73;88.48;97342.72;29395;213;63005;-57
2023/04/19 02:06:20;;;;;;;0.50;0.50;;;;;;;7.72;89.02;97339.22;29395;197;63009;-61
2023/04/19 02:06:51;;;;;;;0.50;0.50;;;;;;;7.72;88.91;97343.81;29395;237;63005;-57
2023/04/19 02:07:22;;;;;;;0.50;0.50;;;;;;;7.71;89.15;97336.78;29395;199;63009;-57
2023/04/19 02:07:53;;;;;;;0.50;0.50;;;;;;;7.70;88.94;97341.37;29394;274;64009;-58
2023/04/19 02:08:26;;;;;;;0.50;0.50;;;;;;;7.70;89.05;97340.56;29395;227;63004;-56
2023/04/19 02:08:58;;;;;;;0.50;0.50;;;;;;;7.70;88.90;97343.25;29395;249;63004;-55
2023/04/19 02:09:29;;;;;;;0.50;0.50;;;;;;;7.69;89.21;97341.63;29395;240;63009;-57
2023/04/19 02:10:01;;;;;;;0.55;0.55;;;;;;;7.70;89.04;97337.84;29395;233;63008;-56
2023/04/19 02:10:32;;;;;;;0.50;0.50;;;;;;;7.70;89.48;97332.44;29395;238;63008;-56
2023/04/19 02:11:13;;;;;;;0.50;0.50;;;;;;;7.69;89.28;97341.63;29395;234;63004;-57
2023/04/19 02:11:44;;;;;;;;;;;;;;;7.69;89.14;97336.22;29996;983;6005;-57
2023/04/19 02:12:15;;;;;;;0.50;0.50;;;;;;;7.70;89.05;97340.56;29422;197;63009;-60
2023/04/19 02:12:46;;;;;;;0.50;0.50;;;;;;;7.70;89.08;97337.84;29394;223;64009;-58
2023/04/19 02:13:18;;;;;;;0.50;0.50;;;;;;;7.69;89.35;97333.53;29395;303;63012;-57
2023/04/19 02:13:49;;;;;;;0.50;0.50;;;;;;;7.69;89.06;97333.53;29394;217;64009;-57
2023/04/19 02:14:21;;;;;;;0.50;0.50;;;;;;;7.69;89.31;97336.22;29395;287;63016;-57
2023/04/19 02:14:52;;;;;;;0.50;0.50;;;;;;;7.68;89.49;97335.41;29395;213;63005;-58
2023/04/19 02:15:23;;;;;;;0.50;0.50;;;;;;;7.66;89.60;97332.16;29395;244;63009;-56
2023/04/19 02:15:54;;;;;;;0.50;0.50;;;;;;;7.66;89.69;97325.94;29395;231;63004;-57
2023/04/19 02:16:25;;;;;;;0.50;0.50;;;;;;;7.66;89.47;97331.34;29395;243;63009;-57
2023/04/19 02:16:57;;;;;;;0.50;0.50;;;;;;;7.66;89.77;97331.34;29395;205;63004;-57
2023/04/19 02:17:29;;;;;;;0.60;0.60;;;;;;;7.65;89.91;97329.72;29395;225;63009;-57
2023/04/19 02:18:00;;;;;;;0.50;0.50;;;;;;;7.65;89.95;97329.72;29395;227;63004;-58
2023/04/19 02:18:34;;;;;;;0.50;0.50;;;;;;;7.65;89.58;97330.53;29395;238;63008;-57
2023/04/19 02:19:06;;;;;;;0.50;0.50;;;;;;;7.64;89.47;97328.91;29394;201;64009;-57
2023/04/19 02:19:37;;;;;;;0.50;0.50;;;;;;;7.66;89.32;97332.16;29395;215;63009;-57
2023/04/19 02:20:09;;;;;;;0.50;0.50;;;;;;;7.66;89.45;97321.34;29395;220;63005;-57
2023/04/19 02:20:41;;;;;;;0.50;0.50;;;;;;;7.67;89.18;97322.16;29395;220;63009;-56
2023/04/19 02:21:12;;;;;;;0.50;0.50;;;;;;;7.66;89.17;97325.94;29395;197;63005;-57
2023/04/19 02:21:43;;;;;;;0.50;0.50;;;;;;;7.66;89.13;97323.25;29395;260;63009;-60
2023/04/19 02:22:14;;;;;;;0.50;0.50;;;;;;;7.65;89.32;97324.31;29395;224;63005;-56
2023/04/19 02:22:46;;;;;;;0.50;0.50;;;;;;;7.66;89.32;97329.47;29394;225;64013;-56
2023/04/19 02:23:18;;;;;;;0.50;0.50;;;;;;;7.67;89.26;97327.56;29395;223;63004;-57
2023/04/19 02:23:49;;;;;;;0.50;0.50;;;;;;;7.66;89.47;97324.06;29394;248;64013;-57
2023/04/19 02:24:20;;;;;;;0.50;0.50;;;;;;;7.67;89.79;97328.38;29395;300;63004;-57
2023/04/19 02:24:52;;;;;;;0.50;0.50;;;;;;;7.65;89.75;97325.13;29396;226;63009;-57
2023/04/19 02:25:23;;;;;;;0.52;0.52;;;;;;;7.64;89.77;97318.09;29396;203;63004;-57
2023/04/19 02:25:54;;;;;;;0.50;0.50;;;;;;;7.65;89.84;97324.31;29395;254;64008;-58
2023/04/19 02:26:27;;;;;;;0.50;0.50;;;;;;;7.65;89.72;97319.72;29396;263;63005;-57
2023/04/19 02:26:58;;;;;;;0.50;0.50;;;;;;;7.65;89.80;97324.31;29395;236;64014;-57
2023/04/19 02:27:29;;;;;;;0.50;0.50;;;;;;;7.63;89.73;97318.37;29396;269;63005;-58
2023/04/19 02:28:01;;;;;;;0.50;0.50;;;;;;;7.63;89.84;97321.06;29395;227;64007;-57
2023/04/19 02:28:32;;;;;;;0.50;0.50;;;;;;;7.62;89.79;97316.78;29395;223;64009;-57
2023/04/19 02:29:03;;;;;;;0.50;0.50;;;;;;;7.62;89.83;97317.56;29396;215;63009;-58
2023/04/19 02:29:35;;;;;;;0.50;0.50;;;;;;;7.62;89.52;97319.47;29396;215;63005;-57
2023/04/19 02:30:07;;;;;;;0.50;0.50;;;;;;;7.62;89.59;97314.84;29396;228;63009;-57
2023/04/19 02:30:39;;;;;;;0.50;0.50;;;;;;;7.61;89.96;97315.16;29396;199;63004;-56
2023/04/19 02:31:10;;;;;;;0.50;0.50;;;;;;;7.63;89.48;97318.37;29395;250;63009;-57
2023/04/19 02:31:44;;;;;;;0.50;0.50;;;;;;;7.63;89.65;97313.78;29396;218;63004;-57
2023/04/19 02:32:15;;;;;;;0.50;0.50;;;;;;;7.64;89.71;97315.41;29396;215;63009;-57
2023/04/19 02:32:47;;;;;;;0.50;0.50;;;;;;;7.63;89.40;97315.66;29395;271;64009;-58
2023/04/19 02:33:21;;;;;;;0.50;0.50;;;;;;;7.63;89.36;97310.25;29396;226;63008;-57
2023/04/19 02:33:52;;;;;;;0.50;0.50;;;;;;;7.62;89.67;97312.16;29395;314;64008;-57
2023/04/19 02:34:23;;;;;;;0.60;0.60;;;;;;;7.63;89.24;97312.97;29396;274;63009;-58
2023/04/19 02:34:54;;;;;;;0.50;0.50;;;;;;;7.63;89.30;97313.78;29396;242;63005;-58